Time;durP1;ratioP1;P1;durP2;ratioP2;P2;SDS_P1;SDS_P2;PMS_P1;PMS_P2;Temp;Humidity;BMP_temperature;BMP_pressure;BME280_temperature;BME280_humidity;BME280_pressure;Samples;Min_cycle;Max_cycle;Signal;HPM_P1;HPM_P2
2024/03/07 00:01:40;;;;;;;14.47;12.03;;;6.70;99.90;;;;;;5034381;28;20257;-62
2024/03/07 00:04:06;;;;;;;14.10;12.47;;;6.70;99.90;;;;;;5033875;28;20210;-62
2024/03/07 00:06:34;;;;;;;15.20;12.23;;;6.70;99.90;;;;;;5042151;28;20551;-62
2024/03/07 00:09:00;;;;;;;16.50;12.60;;;6.50;99.90;;;;;;5047127;28;20320;-62
2024/03/07 00:11:28;;;;;;;16.07;12.30;;;6.50;99.90;;;;;;5053986;28;20204;-60
2024/03/07 00:13:56;;;;;;;12.77;11.17;;;6.40;99.90;;;;;;5054212;28;20536;-60
2024/03/07 00:16:22;;;;;;;13.93;12.07;;;6.40;99.90;;;;;;5054805;28;20206;-60
2024/03/07 00:18:49;;;;;;;15.43;12.33;;;6.50;99.90;;;;;;5054740;28;20233;-60
2024/03/07 00:21:16;;;;;;;15.53;12.60;;;6.50;99.90;;;;;;5054626;28;20249;-61
2024/03/07 00:23:43;;;;;;;17.63;13.03;;;6.60;99.90;;;;;;5054062;28;20209;-62
2024/03/07 00:26:10;;;;;;;14.93;12.80;;;6.50;99.90;;;;;;5054373;28;20205;-61
2024/03/07 00:28:40;;;;;;;14.40;12.90;;;6.40;99.90;;;;;;5054021;28;20808;-61
2024/03/07 00:31:08;;;;;;;17.57;13.00;;;6.40;99.90;;;;;;5054014;28;20694;-60
2024/03/07 00:33:35;;;;;;;15.23;12.90;;;6.40;99.90;;;;;;5054024;28;20209;-63
2024/03/07 00:36:02;;;;;;;15.20;12.60;;;6.40;99.90;;;;;;5054199;28;20243;-63
2024/03/07 00:38:29;;;;;;;19.80;14.57;;;6.30;99.90;;;;;;5053759;28;20746;-63
2024/03/07 00:40:55;;;;;;;16.03;13.97;;;6.30;99.90;;;;;;5053809;28;20253;-63
2024/03/07 00:43:22;;;;;;;16.80;13.90;;;6.30;99.90;;;;;;5053537;28;20217;-62
2024/03/07 00:45:49;;;;;;;17.17;13.53;;;6.20;99.90;;;;;;5053631;28;20653;-61
2024/03/07 00:48:18;;;;;;;14.67;12.30;;;6.20;99.90;;;;;;5053747;28;20237;-61
2024/03/07 00:50:45;;;;;;;20.80;12.93;;;6.10;99.90;;;;;;5053809;28;20260;-60
2024/03/07 00:53:11;;;;;;;36.87;12.57;;;6.00;99.90;;;;;;5053427;28;20202;-61
2024/03/07 00:55:38;;;;;;;21.23;13.97;;;6.00;99.90;;;;;;5053759;28;20205;-60
2024/03/07 00:58:05;;;;;;;23.30;12.73;;;5.90;99.90;;;;;;5053637;28;20232;-60
2024/03/07 01:00:32;;;;;;;25.80;12.67;;;5.80;99.90;;;;;;5053451;28;20229;-60
2024/03/07 01:02:58;;;;;;;17.20;12.30;;;5.70;99.90;;;;;;5053491;28;20213;-61
2024/03/07 01:05:27;;;;;;;29.23;11.63;;;5.60;99.90;;;;;;5053571;28;20205;-62
2024/03/07 01:07:55;;;;;;;32.50;13.13;;;5.60;99.90;;;;;;5053543;28;20212;-59
2024/03/07 01:10:22;;;;;;;25.13;12.67;;;5.50;99.90;;;;;;5053929;28;20212;-60
2024/03/07 01:12:49;;;;;;;25.30;13.17;;;5.40;99.90;;;;;;5054079;28;20206;-61
2024/03/07 01:15:16;;;;;;;14.27;12.77;;;5.30;99.90;;;;;;5053751;28;20679;-61
2024/03/07 01:17:44;;;;;;;19.30;13.10;;;5.30;99.90;;;;;;5054081;28;20209;-61
2024/03/07 01:20:11;;;;;;;19.87;14.23;;;5.10;99.90;;;;;;5054399;28;20337;-61
2024/03/07 01:22:39;;;;;;;17.60;14.50;;;5.10;99.90;;;;;;5052223;28;20210;-61
2024/03/07 01:25:07;;;;;;;18.10;15.63;;;5.00;99.90;;;;;;5053306;28;20259;-60
2024/03/07 01:27:33;;;;;;;16.53;14.30;;;5.10;99.90;;;;;;5053363;28;20201;-61
2024/03/07 01:30:01;;;;;;;18.70;15.20;;;5.00;99.90;;;;;;5053381;28;20221;-60
2024/03/07 01:32:28;;;;;;;17.23;14.37;;;5.00;99.90;;;;;;5053775;28;20386;-60
2024/03/07 01:34:54;;;;;;;17.93;14.57;;;4.90;99.90;;;;;;5053119;28;20225;-60
2024/03/07 01:37:21;;;;;;;17.57;14.53;;;4.90;99.90;;;;;;5053404;28;20263;-59
2024/03/07 01:39:49;;;;;;;17.10;14.20;;;4.80;99.90;;;;;;5053295;28;20241;-60
2024/03/07 01:42:16;;;;;;;16.73;13.70;;;4.80;99.90;;;;;;5053023;28;20346;-62
2024/03/07 01:44:43;;;;;;;16.23;14.17;;;4.70;99.90;;;;;;5053089;28;20205;-60
2024/03/07 01:47:11;;;;;;;16.30;13.77;;;4.80;99.90;;;;;;5053423;28;20206;-60
2024/03/07 01:49:39;;;;;;;17.53;14.20;;;4.80;99.90;;;;;;5052769;28;20233;-60
2024/03/07 01:52:06;;;;;;;17.80;14.47;;;4.80;99.90;;;;;;5052913;28;20293;-61
2024/03/07 01:54:33;;;;;;;18.23;13.93;;;4.90;99.90;;;;;;5052498;28;20683;-59
2024/03/07 01:57:02;;;;;;;18.53;14.83;;;4.90;99.90;;;;;;5053066;28;20288;-61
2024/03/07 01:59:32;;;;;;;21.77;14.97;;;5.00;99.90;;;;;;5052827;28;20256;-61
2024/03/07 02:02:02;;;;;;;24.53;17.07;;;5.00;99.90;;;;;;5052676;28;20320;-59
2024/03/07 02:04:28;;;;;;;16.83;14.30;;;5.00;99.90;;;;;;5052454;28;20252;-63
2024/03/07 02:06:56;;;;;;;17.07;14.17;;;5.00;99.90;;;;;;5052829;28;20213;-60
2024/03/07 02:09:23;;;;;;;15.83;13.77;;;4.80;99.90;;;;;;5052961;28;20283;-59
2024/03/07 02:11:49;;;;;;;18.67;14.43;;;4.80;99.90;;;;;;5053199;28;20201;-60
2024/03/07 02:14:17;;;;;;;18.10;14.53;;;4.80;99.90;;;;;;5052693;28;20225;-60
2024/03/07 02:16:44;;;;;;;16.57;13.93;;;4.80;99.90;;;;;;5053194;28;20209;-60
2024/03/07 02:19:15;;;;;;;17.43;13.90;;;4.70;99.90;;;;;;5052741;28;20616;-60
2024/03/07 02:21:43;;;;;;;19.20;14.63;;;4.60;99.90;;;;;;5053007;28;20229;-60
2024/03/07 02:24:10;;;;;;;15.53;13.30;;;4.60;99.90;;;;;;5052701;28;20213;-61
2024/03/07 02:26:39;;;;;;;15.37;13.33;;;4.60;99.90;;;;;;5053106;28;20259;-59
2024/03/07 02:29:06;;;;;;;17.67;14.97;;;4.60;99.90;;;;;;5052811;28;20350;-60
2024/03/07 02:31:36;;;;;;;19.57;15.30;;;4.70;99.90;;;;;;5052933;28;20293;-60
2024/03/07 02:34:04;;;;;;;20.00;14.77;;;4.70;99.90;;;;;;5054474;28;20676;-60
2024/03/07 02:36:30;;;;;;;19.70;15.07;;;4.70;99.90;;;;;;5056810;28;20201;-61
2024/03/07 02:38:59;;;;;;;18.63;15.90;;;4.70;99.90;;;;;;5056834;28;20629;-60
2024/03/07 02:41:25;;;;;;;19.43;15.17;;;4.60;99.90;;;;;;5052689;28;20253;-59
2024/03/07 02:43:52;;;;;;;21.80;16.07;;;4.60;99.90;;;;;;5052353;28;20216;-60
2024/03/07 02:46:19;;;;;;;18.20;14.83;;;4.60;99.90;;;;;;5052655;28;20201;-61
2024/03/07 02:48:46;;;;;;;18.20;14.20;;;4.50;99.90;;;;;;5052580;28;20241;-60
2024/03/07 02:51:13;;;;;;;15.23;13.30;;;4.50;99.90;;;;;;5052643;28;20667;-60
2024/03/07 02:53:40;;;;;;;16.47;14.10;;;4.50;99.90;;;;;;5052244;28;20213;-58
2024/03/07 02:56:09;;;;;;;16.50;13.83;;;4.40;99.90;;;;;;5052809;28;20220;-60
2024/03/07 02:58:36;;;;;;;17.67;13.90;;;4.40;99.90;;;;;;5052575;28;20552;-60
2024/03/07 03:01:04;;;;;;;18.10;13.67;;;4.40;99.90;;;;;;5052259;28;20233;-60
2024/03/07 03:03:32;;;;;;;19.97;14.40;;;4.40;99.90;;;;;;5052109;28;20659;-60
2024/03/07 03:05:58;;;;;;;17.73;14.50;;;4.40;99.90;;;;;;5052759;28;20288;-60
2024/03/07 03:08:25;;;;;;;19.43;15.10;;;4.40;99.90;;;;;;5052605;28;20229;-61
2024/03/07 03:10:52;;;;;;;19.13;14.43;;;4.30;99.90;;;;;;5052714;28;20279;-61
2024/03/07 03:13:20;;;;;;;18.40;14.63;;;4.30;99.90;;;;;;5052337;28;20259;-60
2024/03/07 03:15:47;;;;;;;18.70;15.00;;;4.30;99.90;;;;;;5052198;28;20213;-60
2024/03/07 03:18:14;;;;;;;19.27;15.07;;;4.30;99.90;;;;;;5052478;28;20222;-60
2024/03/07 03:20:42;;;;;;;20.03;15.17;;;4.30;99.90;;;;;;5052128;28;20222;-60
2024/03/07 03:23:11;;;;;;;19.83;16.10;;;4.40;99.90;;;;;;5051770;28;20660;-61
2024/03/07 03:25:38;;;;;;;19.73;16.17;;;4.40;99.90;;;;;;5052061;28;20237;-60
2024/03/07 03:28:06;;;;;;;21.43;15.57;;;4.40;99.90;;;;;;5051852;28;20275;-60
2024/03/07 03:30:34;;;;;;;20.80;16.00;;;4.40;99.90;;;;;;5052043;28;20691;-60
2024/03/07 03:33:01;;;;;;;20.10;14.77;;;4.40;99.90;;;;;;5051904;28;20715;-60
2024/03/07 03:35:28;;;;;;;17.70;14.83;;;4.30;99.90;;;;;;5052129;28;20648;-60
2024/03/07 03:37:54;;;;;;;19.43;15.23;;;4.20;99.90;;;;;;5052378;28;20277;-60
2024/03/07 03:40:21;;;;;;;20.23;15.07;;;4.20;99.90;;;;;;5052828;28;20261;-60
2024/03/07 03:42:48;;;;;;;21.47;14.80;;;4.00;99.90;;;;;;5052391;28;20209;-60
2024/03/07 03:45:15;;;;;;;20.10;15.77;;;3.90;99.90;;;;;;5053545;28;20297;-60
2024/03/07 03:47:44;;;;;;;19.47;14.43;;;3.90;99.90;;;;;;5063321;28;20202;-58
2024/03/07 03:50:12;;;;;;;19.70;15.13;;;3.70;99.90;;;;;;5056904;22;20277;-56
2024/03/07 03:52:40;;;;;;;17.33;14.60;;;3.60;99.90;;;;;;5023862;28;20203;-55
2024/03/07 03:55:09;;;;;;;19.60;15.47;;;3.50;99.90;;;;;;5026903;28;20214;-53
2024/03/07 03:57:37;;;;;;;20.53;15.40;;;3.40;99.90;;;;;;5026699;28;20629;-53
2024/03/07 04:00:12;;;;;;;20.60;16.10;;;3.30;99.90;;;;;;5023165;28;20711;-54
2024/03/07 04:02:39;;;;;;;19.80;15.40;;;3.20;99.90;;;;;;5030823;28;20686;-54
2024/03/07 04:05:09;;;;;;;21.53;16.60;;;3.20;99.90;;;;;;5023026;28;20203;-54
2024/03/07 04:07:36;;;;;;;19.83;15.83;;;3.20;99.90;;;;;;5030983;28;20594;-54
2024/03/07 04:10:04;;;;;;;20.40;16.23;;;3.20;99.90;;;;;;5022739;28;20223;-53
2024/03/07 04:12:30;;;;;;;19.67;15.50;;;3.20;99.90;;;;;;5023044;28;20241;-54
2024/03/07 04:14:57;;;;;;;21.10;16.13;;;3.20;99.90;;;;;;5025382;28;20201;-57
2024/03/07 04:17:24;;;;;;;19.63;15.10;;;3.20;99.90;;;;;;5026064;28;20586;-54
2024/03/07 04:19:51;;;;;;;20.10;15.83;;;3.20;99.90;;;;;;5023654;28;20655;-54
2024/03/07 04:22:20;;;;;;;20.73;16.13;;;3.20;99.90;;;;;;5023028;28;20310;-55
2024/03/07 04:24:53;;;;;;;20.53;15.50;;;3.10;99.90;;;;;;5023663;28;20218;-53
2024/03/07 04:27:21;;;;;;;21.60;16.00;;;3.10;99.90;;;;;;5026010;28;20213;-53
2024/03/07 04:29:48;;;;;;;20.17;15.90;;;3.10;99.90;;;;;;5024263;28;20558;-53
2024/03/07 04:32:16;;;;;;;23.93;17.30;;;3.00;99.90;;;;;;5022397;28;20665;-53
2024/03/07 04:34:43;;;;;;;21.57;16.90;;;2.90;99.90;;;;;;5022944;28;20203;-53
2024/03/07 04:37:10;;;;;;;23.13;17.53;;;2.90;99.90;;;;;;5025709;28;20210;-53
2024/03/07 04:39:38;;;;;;;21.90;16.50;;;2.90;99.90;;;;;;5025531;28;20233;-54
2024/03/07 04:42:07;;;;;;;25.73;17.87;;;2.90;99.90;;;;;;5022234;28;20766;-53
2024/03/07 04:44:35;;;;;;;24.00;18.10;;;2.90;99.90;;;;;;5022016;28;20281;-52
2024/03/07 04:47:03;;;;;;;25.10;17.10;;;2.90;99.90;;;;;;5022005;28;20227;-55
2024/03/07 04:49:31;;;;;;;25.20;18.13;;;2.90;99.90;;;;;;5022100;28;20249;-53
2024/03/07 04:51:58;;;;;;;29.00;20.53;;;2.80;99.90;;;;;;5024945;28;20260;-53
2024/03/07 04:54:26;;;;;;;30.33;19.63;;;2.80;99.90;;;;;;5025028;28;20676;-52
2024/03/07 04:56:54;;;;;;;24.63;19.93;;;2.80;99.90;;;;;;5022870;28;20210;-55
2024/03/07 04:59:22;;;;;;;26.93;19.67;;;2.70;99.90;;;;;;5021661;28;20235;-53
2024/03/07 05:01:50;;;;;;;28.60;20.63;;;2.70;99.90;;;;;;5023283;28;20222;-54
2024/03/07 05:04:18;;;;;;;29.17;20.13;;;2.70;99.90;;;;;;5024801;28;20243;-54
2024/03/07 05:06:47;;;;;;;26.57;19.73;;;2.70;99.90;;;;;;5024121;28;20210;-54
2024/03/07 05:09:22;;;;;;;24.67;18.90;;;2.70;99.90;;;;;;5021709;28;20222;-53
2024/03/07 05:11:51;;;;;;;24.97;18.33;;;2.80;99.90;;;;;;5023003;28;20225;-52
2024/03/07 05:14:20;;;;;;;24.03;18.17;;;2.70;99.90;;;;;;5024731;28;20214;-54
2024/03/07 05:16:48;;;;;;;22.63;17.77;;;2.70;99.90;;;;;;5023514;28;20533;-55
2024/03/07 05:19:22;;;;;;;22.83;17.77;;;2.60;99.90;;;;;;5021574;28;20236;-53
2024/03/07 05:21:48;;;;;;;22.23;17.67;;;2.60;99.90;;;;;;5022957;28;20469;-52
2024/03/07 05:24:15;;;;;;;22.13;17.13;;;2.50;99.90;;;;;;5024719;28;20206;-54
2024/03/07 05:26:41;;;;;;;21.90;17.17;;;2.50;99.90;;;;;;5023955;28;20206;-53
2024/03/07 05:29:10;;;;;;;22.60;17.40;;;2.40;99.90;;;;;;5021086;28;20234;-54
2024/03/07 05:31:45;;;;;;;21.37;15.87;;;2.40;99.90;;;;;;5021354;28;20280;-57
2024/03/07 05:34:12;;;;;;;24.87;18.20;;;2.40;99.90;;;;;;5021132;28;20206;-54
2024/03/07 05:36:43;;;;;;;20.40;16.83;;;2.40;99.90;;;;;;5021284;28;20211;-55
2024/03/07 05:39:11;;;;;;;22.50;16.93;;;2.40;99.90;;;;;;5024317;28;20703;-54
2024/03/07 05:41:37;;;;;;;27.43;17.13;;;2.40;99.90;;;;;;5024193;28;20226;-54
2024/03/07 05:44:08;;;;;;;21.80;16.13;;;2.30;99.90;;;;;;5020988;28;20203;-54
2024/03/07 05:46:35;;;;;;;21.80;17.03;;;2.20;99.90;;;;;;5021382;28;20207;-54
2024/03/07 05:49:03;;;;;;;23.67;17.73;;;2.10;99.90;;;;;;5023998;28;20309;-54
2024/03/07 05:51:30;;;;;;;25.30;17.80;;;2.10;99.90;;;;;;5024809;28;20202;-56
2024/03/07 05:53:57;;;;;;;25.40;17.73;;;2.10;99.90;;;;;;5021480;28;20297;-54
2024/03/07 05:56:23;;;;;;;23.93;18.90;;;2.10;99.90;;;;;;5021100;28;20257;-55
2024/03/07 05:58:51;;;;;;;23.60;17.90;;;2.10;99.90;;;;;;5022495;28;20223;-54
2024/03/07 06:01:18;;;;;;;25.73;19.07;;;2.20;99.90;;;;;;5024257;28;20675;-57
2024/03/07 06:03:44;;;;;;;25.13;19.50;;;2.20;99.90;;;;;;5023076;28;20636;-54
2024/03/07 06:06:13;;;;;;;24.97;18.37;;;2.30;99.90;;;;;;5020533;28;20215;-54
2024/03/07 06:08:41;;;;;;;25.03;18.83;;;2.30;99.90;;;;;;5028254;28;20234;-53
2024/03/07 06:11:08;;;;;;;23.67;18.40;;;2.40;99.90;;;;;;5021196;28;20210;-53
2024/03/07 06:13:35;;;;;;;25.00;17.90;;;2.40;99.90;;;;;;5020496;28;20211;-53
2024/03/07 06:16:05;;;;;;;25.07;18.33;;;2.50;99.90;;;;;;5023408;28;20695;-56
2024/03/07 06:18:32;;;;;;;24.80;18.53;;;2.50;99.90;;;;;;5023857;28;20234;-55
2024/03/07 06:20:59;;;;;;;23.80;18.90;;;2.50;99.90;;;;;;5021083;28;20237;-54
2024/03/07 06:23:28;;;;;;;26.87;19.87;;;2.50;99.90;;;;;;5020061;28;20799;-53
2024/03/07 06:25:55;;;;;;;27.43;19.67;;;2.60;99.90;;;;;;5022390;28;20217;-54
2024/03/07 06:28:22;;;;;;;26.10;18.67;;;2.60;99.90;;;;;;5023695;28;20230;-54
2024/03/07 06:30:49;;;;;;;25.63;19.87;;;2.70;99.90;;;;;;5022341;28;20679;-54
2024/03/07 06:33:17;;;;;;;23.27;18.83;;;2.90;99.90;;;;;;5020156;28;20222;-53
2024/03/07 06:35:43;;;;;;;27.37;20.87;;;3.00;99.90;;;;;;5020531;28;20302;-54
2024/03/07 06:38:11;;;;;;;31.03;18.53;;;3.00;99.90;;;;;;5023895;28;20206;-55
2024/03/07 06:40:40;;;;;;;28.17;19.77;;;3.10;99.90;;;;;;5023690;28;20231;-54
2024/03/07 06:43:09;;;;;;;24.60;18.27;;;3.20;99.90;;;;;;5019799;28;20317;-53
2024/03/07 06:45:36;;;;;;;26.83;19.07;;;3.50;99.90;;;;;;5020433;28;20207;-57
2024/03/07 06:48:04;;;;;;;27.60;20.07;;;3.80;99.90;;;;;;5023149;28;20202;-54
2024/03/07 06:50:30;;;;;;;26.90;20.57;;;4.30;99.90;;;;;;5023579;28;20238;-55
2024/03/07 06:52:57;;;;;;;26.37;20.20;;;4.90;99.90;;;;;;5021068;28;20511;-55
2024/03/07 06:55:24;;;;;;;24.23;18.77;;;5.60;99.90;;;;;;5020406;28;20210;-53
2024/03/07 06:57:52;;;;;;;21.90;17.57;;;6.40;99.90;;;;;;5021495;28;20210;-58
2024/03/07 07:00:19;;;;;;;21.77;17.70;;;7.20;99.90;;;;;;5023296;28;20265;-57
2024/03/07 07:02:46;;;;;;;24.20;19.10;;;8.00;99.90;;;;;;5022210;28;20226;-59
2024/03/07 07:05:15;;;;;;;20.30;16.03;;;8.80;99.90;;;;;;5020020;28;20238;-57
2024/03/07 07:07:42;;;;;;;19.03;15.90;;;9.50;99.90;;;;;;5020258;28;20297;-56
2024/03/07 07:10:15;;;;;;;20.07;15.70;;;10.10;99.90;;;;;;5023339;28;20706;-55
2024/03/07 07:12:42;;;;;;;17.90;15.73;;;10.70;99.90;;;;;;5023407;28;20218;-54
2024/03/07 07:15:12;;;;;;;18.50;15.60;;;11.30;99.90;;;;;;5015672;28;20206;-55
2024/03/07 07:17:39;;;;;;;19.50;16.40;;;11.30;99.90;;;;;;5023372;28;20737;-54
2024/03/07 07:20:10;;;;;;;17.47;15.47;;;11.40;99.90;;;;;;5019823;28;20219;-55
2024/03/07 07:22:36;;;;;;;19.63;15.33;;;11.80;99.90;;;;;;5023911;28;20234;-54
2024/03/07 07:25:04;;;;;;;18.47;15.60;;;12.30;99.90;;;;;;5026682;28;20206;-55
2024/03/07 07:27:31;;;;;;;21.03;16.20;;;12.80;99.90;;;;;;5027111;28;20289;-58
2024/03/07 07:29:58;;;;;;;19.00;15.57;;;13.10;99.90;;;;;;5024606;28;20632;-55
2024/03/07 07:32:27;;;;;;;18.97;15.53;;;13.40;99.90;;;;;;5023888;28;20211;-54
2024/03/07 07:34:54;;;;;;;18.00;16.07;;;13.70;99.90;;;;;;5025048;28;20203;-55
2024/03/07 07:37:20;;;;;;;17.50;15.33;;;13.80;99.90;;;;;;5027061;28;20229;-54
2024/03/07 07:39:47;;;;;;;20.00;15.70;;;13.60;99.90;;;;;;5026190;28;20222;-57
2024/03/07 07:42:14;;;;;;;19.03;15.77;;;13.40;99.90;;;;;;5023408;28;20223;-54
2024/03/07 07:44:43;;;;;;;17.27;14.63;;;13.00;99.90;;;;;;5023087;28;20624;-54
2024/03/07 07:47:10;;;;;;;20.27;16.10;;;12.40;99.90;;;;;;5031103;28;20203;-55
2024/03/07 07:49:39;;;;;;;18.73;15.87;;;11.90;99.90;;;;;;5022871;28;20235;-54
2024/03/07 07:52:06;;;;;;;26.37;17.77;;;11.30;99.90;;;;;;5031316;28;20278;-57
2024/03/07 07:54:33;;;;;;;25.40;16.53;;;10.80;99.90;;;;;;5022880;28;20211;-55
2024/03/07 07:56:59;;;;;;;23.77;17.40;;;10.40;99.90;;;;;;5025280;28;20210;-57
2024/03/07 07:59:26;;;;;;;22.97;17.37;;;10.10;99.90;;;;;;5026212;28;20229;-55
2024/03/07 08:01:55;;;;;;;19.63;16.77;;;9.90;99.90;;;;;;5024954;28;20214;-55
2024/03/07 08:04:22;;;;;;;19.73;15.67;;;9.70;99.90;;;;;;5022788;28;20233;-57
2024/03/07 08:06:51;;;;;;;19.43;16.23;;;9.60;99.90;;;;;;5023650;28;20260;-55
2024/03/07 08:09:18;;;;;;;19.93;15.97;;;9.60;99.90;;;;;;5026053;28;20229;-55
2024/03/07 08:11:45;;;;;;;22.50;16.50;;;9.70;99.90;;;;;;5025403;28;20209;-54
2024/03/07 08:14:12;;;;;;;18.40;15.53;;;9.70;99.90;;;;;;5022570;28;20286;-55
2024/03/07 08:16:38;;;;;;;21.87;16.80;;;9.70;99.90;;;;;;5022519;28;20298;-55
2024/03/07 08:19:06;;;;;;;18.10;15.03;;;9.60;99.90;;;;;;5025553;28;20230;-54
2024/03/07 08:21:33;;;;;;;24.13;15.93;;;9.50;99.90;;;;;;5026000;28;20206;-55
2024/03/07 08:24:03;;;;;;;19.47;14.83;;;9.30;99.90;;;;;;5023626;28;20276;-57
2024/03/07 08:26:30;;;;;;;21.07;16.73;;;9.20;99.90;;;;;;5022493;28;20218;-54
2024/03/07 08:28:56;;;;;;;20.87;15.90;;;9.10;99.90;;;;;;5024177;28;20712;-55
2024/03/07 08:31:23;;;;;;;17.07;15.00;;;9.00;99.90;;;;;;5025382;28;20284;-55
2024/03/07 08:33:50;;;;;;;20.93;15.47;;;8.90;99.90;;;;;;5024541;28;20625;-57
2024/03/07 08:36:16;;;;;;;23.03;15.83;;;8.80;99.90;;;;;;5022169;28;20688;-57
2024/03/07 08:38:46;;;;;;;19.90;15.33;;;8.80;99.90;;;;;;5022068;28;20697;-55
2024/03/07 08:41:14;;;;;;;18.97;15.83;;;8.80;99.90;;;;;;5022504;28;20240;-56
2024/03/07 08:43:41;;;;;;;20.30;16.00;;;8.80;99.90;;;;;;5022052;28;20223;-56
2024/03/07 08:46:08;;;;;;;18.77;15.90;;;8.90;99.90;;;;;;5025473;28;20206;-55
2024/03/07 08:48:35;;;;;;;20.47;14.77;;;9.00;99.90;;;;;;5025114;28;20232;-56
2024/03/07 08:51:01;;;;;;;18.50;14.70;;;9.20;99.90;;;;;;5022868;28;20695;-54
2024/03/07 08:53:28;;;;;;;19.07;15.60;;;9.30;99.90;;;;;;5021525;28;20203;-55
2024/03/07 08:55:55;;;;;;;21.17;15.60;;;9.50;99.90;;;;;;5023142;28;20206;-56
2024/03/07 08:58:24;;;;;;;24.37;14.63;;;9.60;99.90;;;;;;5025381;28;20227;-55
2024/03/07 09:00:52;;;;;;;19.83;14.83;;;9.70;99.90;;;;;;5024685;28;20641;-55
2024/03/07 09:03:21;;;;;;;20.50;14.83;;;9.90;99.90;;;;;;5021677;28;20233;-57
2024/03/07 09:05:48;;;;;;;21.13;14.47;;;9.80;99.90;;;;;;5022220;28;20203;-56
2024/03/07 09:08:15;;;;;;;17.93;14.90;;;9.60;99.90;;;;;;5025285;28;20206;-56
2024/03/07 09:10:42;;;;;;;20.53;15.60;;;9.60;99.90;;;;;;5025187;28;20217;-60
2024/03/07 09:13:09;;;;;;;19.93;15.40;;;9.70;99.90;;;;;;5021410;28;20206;-60
2024/03/07 09:15:37;;;;;;;17.67;15.30;;;9.70;99.90;;;;;;5021258;28;20572;-59
2024/03/07 09:18:05;;;;;;;19.40;15.23;;;9.70;99.90;;;;;;5023830;28;20214;-60
2024/03/07 09:20:32;;;;;;;20.73;15.67;;;9.80;99.90;;;;;;5025131;28;20229;-59
2024/03/07 09:23:00;;;;;;;20.87;16.77;;;9.80;99.90;;;;;;5022253;28;20233;-61
2024/03/07 09:25:27;;;;;;;20.67;16.50;;;9.80;99.90;;;;;;5021260;28;20203;-59
2024/03/07 09:27:54;;;;;;;20.97;16.07;;;9.60;99.90;;;;;;5022467;28;20632;-58
2024/03/07 09:30:25;;;;;;;18.70;15.53;;;9.40;99.90;;;;;;5024591;28;20337;-59
2024/03/07 09:32:54;;;;;;;23.90;16.90;;;9.20;99.90;;;;;;5023390;28;20207;-59
2024/03/07 09:35:21;;;;;;;22.80;16.47;;;9.00;99.90;;;;;;5020992;28;20207;-59
2024/03/07 09:37:49;;;;;;;22.77;16.63;;;8.80;99.90;;;;;;5021319;28;20855;-59
2024/03/07 09:40:16;;;;;;;23.60;17.43;;;8.50;99.90;;;;;;5024414;28;20233;-59
2024/03/07 09:42:48;;;;;;;23.93;18.80;;;8.30;99.90;;;;;;5023334;28;20237;-59
2024/03/07 09:45:17;;;;;;;27.67;19.03;;;8.10;99.90;;;;;;5020764;28;20211;-59
2024/03/07 09:47:46;;;;;;;26.40;18.77;;;8.00;99.90;;;;;;5020834;28;20238;-61
2024/03/07 09:50:18;;;;;;;28.03;18.60;;;7.90;99.90;;;;;;5021052;28;20313;-58
2024/03/07 09:52:49;;;;;;;22.20;17.43;;;8.00;99.90;;;;;;5020757;28;20586;-59
2024/03/07 09:55:17;;;;;;;26.83;18.37;;;8.20;99.90;;;;;;5020891;28;20725;-59
2024/03/07 09:57:45;;;;;;;23.70;18.17;;;8.30;99.90;;;;;;5020828;28;20703;-59
2024/03/07 10:00:22;;;;;;;25.43;18.93;;;8.40;99.90;;;;;;5020544;28;20231;-60
2024/03/07 10:02:53;;;;;;;24.97;19.03;;;8.60;99.90;;;;;;5020559;28;20704;-60
2024/03/07 10:05:25;;;;;;;27.90;18.80;;;8.80;99.90;;;;;;5024085;28;20209;-58
2024/03/07 10:07:52;;;;;;;26.20;18.80;;;8.80;99.90;;;;;;5023005;28;20210;-59
2024/03/07 10:10:19;;;;;;;25.40;18.63;;;8.90;99.90;;;;;;5020433;28;20292;-59
2024/03/07 10:12:46;;;;;;;25.40;18.40;;;9.00;99.90;;;;;;5019998;28;20584;-59
2024/03/07 10:15:13;;;;;;;27.77;18.67;;;9.20;99.90;;;;;;5020425;28;20747;-58
2024/03/07 10:17:40;;;;;;;25.73;19.10;;;9.50;99.90;;;;;;5020277;28;20211;-58
2024/03/07 10:20:13;;;;;;;24.73;18.43;;;9.80;99.90;;;;;;5022836;28;20265;-58
2024/03/07 10:22:42;;;;;;;23.40;17.20;;;10.00;99.90;;;;;;5023259;28;20206;-59
2024/03/07 10:25:09;;;;;;;26.77;18.10;;;10.30;99.90;;;;;;5020426;28;20203;-58
2024/03/07 10:27:38;;;;;;;28.07;18.67;;;10.50;99.90;;;;;;5020419;28;20206;-59
2024/03/07 10:30:07;;;;;;;23.17;17.97;;;10.80;99.90;;;;;;5022582;28;20230;-59
2024/03/07 10:32:34;;;;;;;22.60;18.00;;;11.00;99.90;;;;;;5023464;28;20679;-58
2024/03/07 10:35:03;;;;;;;23.30;17.33;;;11.20;99.90;;;;;;5021241;28;20294;-57
2024/03/07 10:37:30;;;;;;;21.50;17.07;;;11.50;99.90;;;;;;5020021;28;20224;-58
2024/03/07 10:39:58;;;;;;;26.30;18.53;;;11.90;99.90;;;;;;5021447;28;20313;-58
2024/03/07 10:42:32;;;;;;;23.90;17.63;;;12.20;99.90;;;;;;5023633;28;20206;-53
2024/03/07 10:45:10;;;;;;;21.47;16.33;;;12.50;99.90;;;;;;5021347;28;20699;-54
2024/03/07 10:47:39;;;;;;;21.30;16.97;;;12.70;99.90;;;;;;5020121;28;20625;-53
2024/03/07 10:50:14;;;;;;;23.83;17.63;;;12.70;99.90;;;;;;5022452;28;20289;-54
2024/03/07 10:52:50;;;;;;;27.63;17.93;;;12.70;99.90;;;;;;5023175;28;20230;-54
2024/03/07 10:55:26;;;;;;;24.37;18.00;;;12.80;99.90;;;;;;5022393;28;20244;-55
2024/03/07 10:58:00;;;;;;;20.63;16.83;;;12.80;99.90;;;;;;5024903;28;20203;-53
2024/03/07 11:00:35;;;;;;;23.47;17.53;;;12.80;99.90;;;;;;5027346;28;20201;-53
2024/03/07 11:03:06;;;;;;;25.67;16.77;;;12.70;99.90;;;;;;5025444;28;20347;-55
2024/03/07 11:05:34;;;;;;;22.10;16.83;;;12.60;99.90;;;;;;5024185;28;20245;-53
2024/03/07 11:08:06;;;;;;;21.27;16.97;;;12.80;99.90;;;;;;5025946;28;20214;-55
2024/03/07 11:10:36;;;;;;;20.20;16.30;;;13.00;99.90;;;;;;5027457;28;20628;-53
2024/03/07 11:13:04;;;;;;;18.33;15.27;;;13.30;99.90;;;;;;5024753;28;20747;-55
2024/03/07 11:15:33;;;;;;;21.40;17.17;;;13.50;99.90;;;;;;5024042;28;20209;-55
2024/03/07 11:17:59;;;;;;;23.37;18.90;;;13.70;99.90;;;;;;5025365;28;20708;-52
2024/03/07 11:20:28;;;;;;;23.13;17.43;;;13.80;99.90;;;;;;5027410;28;20297;-55
2024/03/07 11:22:55;;;;;;;22.87;17.50;;;13.90;99.90;;;;;;5026546;28;20209;-55
2024/03/07 11:25:26;;;;;;;20.80;17.17;;;13.80;99.90;;;;;;5023979;28;20207;-61
2024/03/07 11:27:56;;;;;;;23.27;17.87;;;13.60;99.90;;;;;;5024937;28;20302;-59
2024/03/07 11:30:23;;;;;;;22.13;17.53;;;13.40;99.90;;;;;;5026717;28;20317;-60
2024/03/07 11:32:53;;;;;;;24.03;17.37;;;13.40;99.90;;;;;;5026691;28;20668;-60
2024/03/07 11:35:25;;;;;;;22.80;18.03;;;13.50;99.90;;;;;;5023991;28;20234;-61
2024/03/07 11:37:57;;;;;;;23.53;17.60;;;13.60;99.90;;;;;;5023739;28;20236;-62
2024/03/07 11:40:56;;;;;;;20.53;16.77;;;13.70;99.90;;;;;;5027188;28;20209;-61
2024/03/07 11:43:28;;;;;;;23.80;17.67;;;13.80;99.90;;;;;;4993086;28;20656;-61
2024/03/07 11:45:57;;;;;;;21.77;18.13;;;13.70;99.90;;;;;;5019648;28;20301;-61
2024/03/07 11:48:25;;;;;;;22.63;17.83;;;13.60;99.90;;;;;;5024003;28;20303;-62
2024/03/07 11:50:51;;;;;;;23.67;18.40;;;13.60;99.90;;;;;;5024657;28;20211;-62
2024/03/07 11:53:18;;;;;;;22.13;18.23;;;13.50;99.90;;;;;;5026995;28;20293;-60
2024/03/07 11:55:45;;;;;;;21.33;17.57;;;13.10;99.90;;;;;;5027077;28;20214;-63
2024/03/07 11:58:12;;;;;;;22.77;17.93;;;12.50;99.90;;;;;;5023777;28;20589;-61
2024/03/07 12:00:44;;;;;;;22.93;18.13;;;12.00;99.90;;;;;;5023384;28;20265;-59
2024/03/07 12:03:13;;;;;;;22.13;17.40;;;11.70;99.90;;;;;;5026019;28;20210;-61
2024/03/07 12:05:40;;;;;;;23.63;17.73;;;11.80;99.90;;;;;;5025794;28;20218;-66
2024/03/07 12:08:09;;;;;;;23.00;17.43;;;11.90;99.90;;;;;;5023218;28;20214;-63
2024/03/07 12:10:38;;;;;;;27.60;16.43;;;12.30;99.90;;;;;;5022929;28;20211;-63
2024/03/07 12:13:05;;;;;;;22.57;16.97;;;12.60;99.90;;;;;;5024545;28;20673;-61
2024/03/07 12:15:33;;;;;;;23.03;17.10;;;12.80;99.90;;;;;;5026398;28;20206;-62
2024/03/07 12:18:08;;;;;;;21.33;16.20;;;12.80;99.90;;;;;;5025218;28;20233;-63
2024/03/07 12:20:35;;;;;;;20.37;15.70;;;12.80;99.90;;;;;;5022539;28;20305;-62
2024/03/07 12:23:02;;;;;;;19.73;15.20;;;12.80;99.90;;;;;;5024112;28;20218;-62
2024/03/07 12:25:29;;;;;;;18.07;14.83;;;12.80;99.90;;;;;;5026242;28;20257;-63
2024/03/07 12:28:05;;;;;;;19.83;15.83;;;12.70;99.90;;;;;;5025082;28;20241;-62
2024/03/07 12:30:33;;;;;;;21.43;15.77;;;12.70;99.90;;;;;;5022761;28;20233;-62
2024/03/07 12:33:03;;;;;;;24.70;15.83;;;12.40;99.90;;;;;;5023274;28;20214;-62
2024/03/07 12:35:31;;;;;;;21.43;15.07;;;12.30;99.90;;;;;;5025793;28;20213;-61
2024/03/07 12:37:59;;;;;;;23.60;16.33;;;12.20;99.90;;;;;;5024376;28;20297;-63